Time;durP1;ratioP1;P1;durP2;ratioP2;P2;SDS_P1;SDS_P2;PMS_P1;PMS_P2;Temp;Humidity;BMP_temperature;BMP_pressure;BME280_temperature;BME280_humidity;BME280_pressure;Samples;Min_cycle;Max_cycle;Signal;HPM_P1;HPM_P2
2024/03/30 00:02:16;;;;;;;3.13;2.83;;;;;;;10.99;100.00;99952.97;6160354;28;20225;-79
2024/03/30 00:05:41;;;;;;;2.70;2.50;;;;;;;10.93;100.00;99943.66;6169577;28;20230;-78
2024/03/30 00:09:03;;;;;;;4.43;2.93;;;;;;;10.83;100.00;99942.94;6187196;28;20230;-79
2024/03/30 00:12:39;;;;;;;3.57;3.27;;;;;;;10.96;100.00;99943.34;6179185;28;20636;-78
2024/03/30 00:16:06;;;;;;;2.27;2.10;;;;;;;10.82;100.00;99956.59;6168820;28;20500;-80
2024/03/30 00:19:27;;;;;;;3.80;2.73;;;;;;;10.78;100.00;99939.91;6188510;28;20228;-80
2024/03/30 00:22:49;;;;;;;4.50;2.83;;;;;;;10.96;100.00;99937.97;6164835;28;20610;-79
2024/03/30 00:26:10;;;;;;;2.90;2.67;;;;;;;10.96;100.00;99935.25;6178150;28;20681;-80
2024/03/30 00:29:34;;;;;;;2.43;2.33;;;;;;;10.91;100.00;99934.06;6167110;28;20612;-80
2024/03/30 00:32:54;;;;;;;2.90;2.70;;;;;;;10.91;100.00;99921.41;6171179;28;20253;-80
2024/03/30 00:36:14;;;;;;;3.93;3.60;;;;;;;11.14;100.00;99905.47;6179508;28;20317;-79
2024/03/30 00:39:38;;;;;;;3.60;3.27;;;;;;;11.20;100.00;99911.06;6188075;28;20337;-80
2024/03/30 00:43:01;;;;;;;2.80;2.60;;;;;;;11.16;100.00;99935.81;6142377;28;20235;-80
2024/03/30 00:46:21;;;;;;;2.57;2.37;;;;;;;10.99;100.00;99926.84;6168970;28;20230;-80
2024/03/30 00:49:41;;;;;;;2.87;2.67;;;;;;;10.78;100.00;99937.22;6184751;28;20229;-81
2024/03/30 00:57:08;;;;;;;3.23;3.03;;;;;;;10.99;100.00;99939.50;6081164;28;20232;-77
2024/03/30 01:00:29;;;;;;;2.27;2.13;;;;;;;10.82;100.00;99941.28;6164715;28;20229;-80
2024/03/30 01:03:50;;;;;;;2.73;2.53;;;;;;;10.83;100.00;99936.69;6179144;28;20221;-78
2024/03/30 01:07:11;;;;;;;3.03;2.83;;;;;;;10.99;100.00;99937.63;6183122;28;20229;-80
2024/03/30 01:10:32;;;;;;;2.50;2.30;;;;;;;11.15;100.00;99926.06;6184154;28;20615;-80
2024/03/30 01:13:55;;;;;;;2.53;2.43;;;;;;;11.17;100.00;99943.78;6162734;28;20238;-81
2024/03/30 01:17:17;;;;;;;2.63;2.43;;;;;;;10.98;100.00;99938.66;6151157;28;20241;-81
2024/03/30 01:20:38;;;;;;;2.50;2.30;;;;;;;10.99;100.00;99944.88;6126311;28;20229;-79
2024/03/30 01:24:00;;;;;;;2.27;2.17;;;;;;;10.91;100.00;99940.28;6177014;28;20235;-79
2024/03/30 01:27:23;;;;;;;2.40;2.17;;;;;;;10.84;100.00;99949.19;6178504;28;20584;-82
2024/03/30 01:30:52;;;;;;;3.67;3.47;;;;;;;10.75;100.00;99956.38;6171452;28;20503;-79
2024/03/30 01:34:13;;;;;;;2.60;2.40;;;;;;;10.58;100.00;99957.28;6182104;28;20233;-79
2024/03/30 01:37:35;;;;;;;3.23;2.73;;;;;;;10.64;100.00;99955.81;6179547;28;20271;-81
2024/03/30 01:40:56;;;;;;;3.30;3.00;;;;;;;10.75;100.00;99945.59;6185327;28;20229;-81
2024/03/30 01:44:21;;;;;;;3.37;3.07;;;;;;;10.86;100.00;99941.78;6171298;28;20268;-79
2024/03/30 01:47:43;;;;;;;3.47;2.37;;;;;;;10.70;100.00;99939.81;6170657;28;20227;-81
2024/03/30 01:51:04;;;;;;;3.30;2.07;;;;;;;10.86;100.00;99939.94;6176903;28;23022;-81
2024/03/30 01:54:25;;;;;;;2.23;2.03;;;;;;;10.81;100.00;99954.88;6179427;28;20221;-81
2024/03/30 01:57:45;;;;;;;2.73;2.30;;;;;;;10.87;100.00;99948.84;6153800;28;20708;-80
2024/03/30 02:01:07;;;;;;;2.20;2.00;;;;;;;10.83;100.00;99958.25;6176101;28;20320;-80
2024/03/30 02:04:30;;;;;;;2.40;2.20;;;;;;;10.74;100.00;99953.84;6178030;28;21704;-79
2024/03/30 02:07:50;;;;;;;2.60;2.50;;;;;;;10.74;100.00;99938.53;6175060;28;20636;-82
2024/03/30 02:11:13;;;;;;;1.90;1.80;;;;;;;10.55;100.00;99936.06;6174408;28;20246;-83
2024/03/30 02:14:34;;;;;;;2.37;2.27;;;;;;;10.56;100.00;99945.81;6181862;28;20237;-82
2024/03/30 02:17:55;;;;;;;1.93;1.83;;;;;;;10.44;100.00;99952.47;6167911;28;20611;-82
2024/03/30 02:21:16;;;;;;;3.90;2.60;;;;;;;10.61;100.00;99954.28;6171875;28;20328;-81
2024/03/30 02:24:39;;;;;;;2.83;2.57;;;;;;;10.58;100.00;99951.03;6173596;28;20312;-81
2024/03/30 02:27:59;;;;;;;2.07;1.97;;;;;;;10.53;100.00;99950.69;6184044;28;20226;-81
2024/03/30 02:31:21;;;;;;;2.87;2.67;;;;;;;10.43;100.00;99953.47;6173750;28;22645;-81
2024/03/30 02:34:42;;;;;;;2.53;2.10;;;;;;;10.51;100.00;99947.31;6180149;28;20241;-82
2024/03/30 02:38:02;;;;;;;2.17;1.90;;;;;;;10.55;100.00;99941.44;6176529;28;20225;-80
2024/03/30 02:41:25;;;;;;;1.87;1.77;;;;;;;10.48;100.00;99945.78;6176137;28;20336;-80
2024/03/30 02:44:46;;;;;;;1.60;1.50;;;;;;;10.47;100.00;99951.31;6181511;28;20226;-80
2024/03/30 02:48:07;;;;;;;2.63;2.43;;;;;;;10.54;100.00;99955.91;6177251;28;20230;-81
2024/03/30 02:51:28;;;;;;;2.00;1.90;;;;;;;10.51;100.00;99948.16;6189273;28;20257;-82
2024/03/30 02:54:49;;;;;;;2.67;2.47;;;;;;;10.48;100.00;99948.47;6182782;28;20234;-82
2024/03/30 02:58:11;;;;;;;1.80;1.70;;;;;;;10.54;100.00;99933.50;6188131;28;20222;-82
2024/03/30 03:01:36;;;;;;;2.13;2.03;;;;;;;10.44;100.00;99934.47;6178417;28;20239;-81
2024/03/30 03:04:57;;;;;;;1.50;1.40;;;;;;;10.51;100.00;99937.38;6185912;28;21579;-80
2024/03/30 03:08:21;;;;;;;1.93;1.77;;;;;;;10.57;100.00;99943.97;6196978;28;20229;-81
2024/03/30 03:11:42;;;;;;;1.80;1.70;;;;;;;10.68;100.00;99939.16;6184255;28;20234;-82
2024/03/30 03:15:04;;;;;;;2.20;2.00;;;;;;;10.57;100.00;99936.75;6188874;28;20237;-80
2024/03/30 03:18:25;;;;;;;1.40;1.40;;;;;;;10.58;100.00;99932.19;6182068;28;20581;-82
2024/03/30 03:21:45;;;;;;;1.83;1.73;;;;;;;10.59;100.00;99940.13;6182570;28;20226;-81
2024/03/30 03:25:07;;;;;;;2.03;1.93;;;;;;;10.56;100.00;99935.03;6183517;28;20234;-82
2024/03/30 03:28:27;;;;;;;1.90;1.80;;;;;;;10.55;100.00;99938.75;6183240;28;20596;-81
2024/03/30 03:31:49;;;;;;;2.30;1.93;;;;;;;10.63;100.00;99930.72;6178916;28;20476;-81
2024/03/30 03:35:10;;;;;;;1.83;1.70;;;;;;;10.72;100.00;99923.53;6174155;28;20604;-81
2024/03/30 03:38:30;;;;;;;1.60;1.50;;;;;;;10.59;100.00;99931.19;6178492;28;20233;-82
2024/03/30 03:41:51;;;;;;;1.67;1.57;;;;;;;10.57;100.00;99936.75;6177436;28;20230;-81
2024/03/30 03:45:11;;;;;;;2.83;2.33;;;;;;;10.66;100.00;99924.16;6181320;28;20230;-82
2024/03/30 03:48:33;;;;;;;1.40;1.30;;;;;;;10.67;100.00;99904.28;6183020;28;20608;-82
2024/03/30 03:51:55;;;;;;;2.40;1.63;;;;;;;10.57;100.00;99914.34;6176541;28;20515;-83
2024/03/30 03:55:16;;;;;;;1.77;1.67;;;;;;;10.50;100.00;99913.25;6179062;28;20670;-82
2024/03/30 03:58:37;;;;;;;2.27;2.07;;;;;;;10.68;100.00;99896.03;6186219;28;20242;-83
2024/03/30 04:01:58;;;;;;;3.40;1.80;;;;;;;10.81;100.00;99895.56;6181282;28;20242;-82
2024/03/30 04:05:21;;;;;;;2.40;1.60;;;;;;;10.87;100.00;99890.38;6178344;28;20218;-82
2024/03/30 04:08:42;;;;;;;2.00;1.73;;;;;;;11.00;100.00;99893.47;6178594;28;20229;-82
2024/03/30 04:12:03;;;;;;;2.87;2.60;;;;;;;11.16;100.00;99884.56;6182679;28;20238;-81
2024/03/30 04:15:24;;;;;;;5.03;2.07;;;;;;;11.16;100.00;99881.88;6179841;28;20230;-82
2024/03/30 04:18:44;;;;;;;1.80;1.70;;;;;;;11.12;100.00;99885.91;6182866;28;20230;-83
2024/03/30 04:22:06;;;;;;;1.80;1.70;;;;;;;11.12;100.00;99881.38;6181656;28;20611;-82
2024/03/30 04:25:26;;;;;;;2.47;1.93;;;;;;;11.13;100.00;99877.69;6176909;28;20225;-81
2024/03/30 04:28:47;;;;;;;1.83;1.73;;;;;;;11.19;100.00;99873.47;6172605;28;20230;-82
2024/03/30 04:32:08;;;;;;;2.17;1.33;;;;;;;11.33;100.00;99878.22;6177299;28;20634;-81
2024/03/30 04:35:28;;;;;;;1.73;1.63;;;;;;;11.32;100.00;99881.09;6192822;28;20325;-81
2024/03/30 04:38:50;;;;;;;1.90;1.60;;;;;;;11.32;100.00;99870.31;6173229;28;20234;-80
2024/03/30 04:42:11;;;;;;;2.20;2.00;;;;;;;11.31;100.00;99874.00;6180047;28;20226;-82
2024/03/30 04:45:32;;;;;;;2.10;2.00;;;;;;;11.23;100.00;99861.34;6178960;28;20249;-81
2024/03/30 04:48:53;;;;;;;2.07;1.87;;;;;;;11.14;100.00;99868.56;6174307;28;21012;-83
2024/03/30 04:52:13;;;;;;;1.83;1.73;;;;;;;11.15;100.00;99864.88;6178674;28;20293;-81
2024/03/30 04:55:36;;;;;;;3.43;2.13;;;;;;;11.22;100.00;99870.47;6181301;28;20234;-82
2024/03/30 04:58:56;;;;;;;2.60;1.97;;;;;;;11.31;100.00;99876.69;6175296;28;20227;-82
2024/03/30 05:02:17;;;;;;;3.23;2.13;;;;;;;11.36;100.00;99869.81;6177310;28;20599;-80
2024/03/30 05:05:37;;;;;;;1.80;1.70;;;;;;;11.34;100.00;99861.03;6177269;28;20985;-82
2024/03/30 05:08:57;;;;;;;2.00;1.87;;;;;;;11.22;100.00;99859.66;6180045;28;20514;-81
2024/03/30 05:12:19;;;;;;;1.73;1.33;;;;;;;11.16;100.00;99866.53;6196520;28;20238;-82
2024/03/30 05:15:42;;;;;;;2.10;1.83;;;;;;;11.19;100.00;99858.13;6180460;28;20225;-82
2024/03/30 05:20:42;;;;;;;2.20;2.00;;;;;;;11.19;100.00;99857.28;6183055;28;20740;-83
2024/03/30 05:22:43;;;;;;;2.33;1.80;;;;;;;11.20;100.00;99853.59;6174254;28;20226;-82
2024/03/30 05:26:05;;;;;;;1.70;1.60;;;;;;;11.25;100.00;99862.88;6179941;28;20249;-81
2024/03/30 05:29:26;;;;;;;4.03;3.00;;;;;;;11.19;100.00;99866.22;6182120;28;20238;-81
2024/03/30 05:32:49;;;;;;;2.40;2.20;;;;;;;11.23;100.00;99862.19;6177201;28;20611;-83
2024/03/30 05:36:10;;;;;;;2.20;1.97;;;;;;;11.22;100.00;99862.38;6176790;28;20316;-83
2024/03/30 05:39:30;;;;;;;2.97;1.83;;;;;;;11.24;100.00;99860.34;6181001;28;20344;-81
2024/03/30 05:42:51;;;;;;;2.60;2.10;;;;;;;11.28;100.00;99856.31;6179373;28;20250;-81
2024/03/30 05:46:22;;;;;;;2.13;1.83;;;;;;;11.32;100.00;99862.19;6176305;28;20251;-81
2024/03/30 05:49:42;;;;;;;2.03;1.93;;;;;;;11.27;100.00;99858.16;6195863;28;20313;-82
2024/03/30 05:53:04;;;;;;;3.20;2.80;;;;;;;11.28;100.00;99859.81;6176461;28;20229;-82
2024/03/30 05:56:25;;;;;;;1.90;1.80;;;;;;;11.20;100.00;99856.28;6176249;28;20249;-82
2024/03/30 05:59:45;;;;;;;3.33;1.77;;;;;;;11.21;100.00;99852.56;6187931;28;20315;-79
2024/03/30 06:03:08;;;;;;;1.97;1.87;;;;;;;11.21;100.00;99844.47;6174541;28;20405;-82
2024/03/30 06:06:27;;;;;;;2.13;2.00;;;;;;;11.19;100.00;99847.34;6179128;28;21755;-82
2024/03/30 06:09:49;;;;;;;2.63;2.10;;;;;;;11.20;100.00;99849.03;6178474;28;20547;-82
2024/03/30 06:13:09;;;;;;;1.73;1.63;;;;;;;11.28;100.00;99843.63;6179210;28;20234;-80
2024/03/30 06:16:30;;;;;;;2.20;1.97;;;;;;;11.38;100.00;99843.50;6176353;28;20234;-83
2024/03/30 06:19:52;;;;;;;2.20;1.97;;;;;;;11.44;100.00;99837.44;6180893;28;20234;-84
2024/03/30 06:23:12;;;;;;;2.33;2.13;;;;;;;11.52;100.00;99845.53;6178932;28;20234;-83
2024/03/30 06:26:33;;;;;;;1.67;1.57;;;;;;;11.55;100.00;99849.75;6177186;28;20501;-82
2024/03/30 06:29:55;;;;;;;2.90;2.13;;;;;;;11.64;100.00;99857.69;6180183;28;20218;-82
2024/03/30 06:33:16;;;;;;;1.80;1.70;;;;;;;11.68;100.00;99864.47;6187101;28;20229;-82
2024/03/30 06:36:38;;;;;;;2.50;2.03;;;;;;;11.79;100.00;99850.63;6181858;28;20628;-82
2024/03/30 06:43:44;;;;;;;1.63;1.53;;;;;;;11.89;100.00;99855.88;6186556;28;20592;-82
2024/03/30 06:47:06;;;;;;;2.10;1.67;;;;;;;12.01;100.00;99855.34;6185968;28;20269;-81
2024/03/30 06:50:27;;;;;;;1.83;1.73;;;;;;;12.10;100.00;99850.78;6179433;28;20241;-81
2024/03/30 06:53:49;;;;;;;3.57;2.13;;;;;;;12.07;100.00;99851.13;6169769;28;20360;-81
2024/03/30 06:57:09;;;;;;;2.17;2.07;;;;;;;12.07;100.00;99845.72;6180916;28;20596;-84
2024/03/30 07:00:30;;;;;;;2.27;2.07;;;;;;;12.20;100.00;99840.66;6175348;28;20320;-83
2024/03/30 07:03:50;;;;;;;2.90;2.53;;;;;;;12.15;100.00;99840.31;6170185;28;20317;-81
2024/03/30 07:07:11;;;;;;;2.20;2.00;;;;;;;12.21;100.00;99844.16;6184659;28;20281;-83
2024/03/30 07:10:34;;;;;;;2.17;1.60;;;;;;;12.35;100.00;99841.59;6175948;28;20798;-82
2024/03/30 07:13:55;;;;;;;1.83;1.73;;;;;;;12.52;100.00;99839.69;6169207;28;20279;-82
2024/03/30 07:17:15;;;;;;;2.67;1.63;;;;;;;12.59;100.00;99838.00;6173236;28;20276;-81
2024/03/30 07:20:36;;;;;;;1.93;1.83;;;;;;;12.79;100.00;99839.25;6165057;28;20237;-82
2024/03/30 07:23:56;;;;;;;2.87;1.90;;;;;;;12.61;100.00;99839.50;6173240;28;20229;-82
2024/03/30 07:27:18;;;;;;;2.43;2.23;;;;;;;12.66;100.00;99833.59;6175845;28;20238;-82
2024/03/30 07:30:40;;;;;;;2.23;2.03;;;;;;;12.64;100.00;99838.31;6174732;28;20234;-83
2024/03/30 07:34:01;;;;;;;2.43;2.23;;;;;;;12.64;100.00;99835.63;6172514;28;20229;-82
2024/03/30 07:37:22;;;;;;;1.90;1.80;;;;;;;12.69;100.00;99831.38;6162683;28;20226;-81
2024/03/30 07:40:43;;;;;;;1.80;1.70;;;;;;;12.85;100.00;99831.28;6173602;28;20227;-82
2024/03/30 07:44:06;;;;;;;3.27;2.77;;;;;;;13.00;100.00;99819.72;6182522;28;20988;-82
2024/03/30 07:47:26;;;;;;;4.70;2.43;;;;;;;13.35;100.00;99819.22;6179256;28;20239;-83
2024/03/30 07:50:46;;;;;;;2.53;2.33;;;;;;;13.08;100.00;99817.00;6177592;28;20246;-81
2024/03/30 07:54:07;;;;;;;5.10;3.00;;;;;;;13.21;100.00;99811.84;6178936;28;20242;-83
2024/03/30 07:57:27;;;;;;;1.70;1.60;;;;;;;13.39;100.00;99804.28;6183873;28;20254;-83
2024/03/30 08:00:50;;;;;;;2.20;2.00;;;;;;;13.56;100.00;99798.56;6178877;28;20230;-80
2024/03/30 08:04:10;;;;;;;1.67;1.57;;;;;;;13.84;100.00;99798.81;6181382;28;20229;-83
2024/03/30 08:07:31;;;;;;;1.67;1.57;;;;;;;13.85;100.00;99800.50;6182837;28;20225;-81
2024/03/30 08:10:52;;;;;;;2.73;2.50;;;;;;;13.82;100.00;99792.75;6170830;28;20229;-82
2024/03/30 08:14:13;;;;;;;1.70;1.60;;;;;;;13.99;100.00;99778.03;6182209;28;20749;-80
2024/03/30 08:17:35;;;;;;;2.20;1.77;;;;;;;14.22;100.00;99786.94;6177909;28;20226;-81
2024/03/30 08:21:02;;;;;;;2.50;2.30;;;;;;;14.50;100.00;99794.44;6180002;28;20320;-81
2024/03/30 08:24:23;;;;;;;1.90;1.80;;;;;;;14.46;100.00;99768.72;6185954;28;20225;-82
2024/03/30 08:27:44;;;;;;;1.70;1.60;;;;;;;14.64;100.00;99769.16;6155626;28;20229;-81
2024/03/30 08:31:05;;;;;;;3.30;1.90;;;;;;;14.50;100.00;99765.44;6178786;28;20245;-83
2024/03/30 08:34:27;;;;;;;2.27;2.07;;;;;;;14.89;100.00;99771.38;6179989;28;20231;-81
2024/03/30 08:37:48;;;;;;;2.33;2.13;;;;;;;15.18;100.00;99756.84;6178275;28;20305;-82
2024/03/30 08:41:08;;;;;;;2.33;2.13;;;;;;;15.33;100.00;99759.50;6179177;28;20234;-81
2024/03/30 08:44:29;;;;;;;3.43;2.80;;;;;;;15.81;100.00;99756.84;6182842;28;20262;-81
2024/03/30 08:47:50;;;;;;;2.67;2.40;;;;;;;15.50;100.00;99753.63;6175807;28;20230;-81
2024/03/30 08:51:11;;;;;;;2.17;2.00;;;;;;;15.75;100.00;99757.63;6176165;28;20603;-81
2024/03/30 08:54:32;;;;;;;1.50;1.40;;;;;;;15.75;100.00;99759.53;6196319;28;20238;-82
2024/03/30 08:57:54;;;;;;;2.60;2.40;;;;;;;15.45;100.00;99752.56;6170500;28;20246;-81
2024/03/30 09:01:16;;;;;;;2.10;2.00;;;;;;;15.21;100.00;99742.88;6177898;28;20233;-80
2024/03/30 09:04:37;;;;;;;1.90;1.50;;;;;;;15.48;100.00;99747.56;6178740;28;20239;-84
2024/03/30 09:07:59;;;;;;;2.57;1.17;;;;;;;15.37;100.00;99756.22;6185181;28;20283;-82
2024/03/30 09:11:20;;;;;;;1.87;1.77;;;;;;;15.48;100.00;99736.69;6185807;28;20222;-82
2024/03/30 09:14:39;;;;;;;2.30;1.70;;;;;;;15.60;100.00;99746.03;6185523;28;20867;-81
2024/03/30 09:18:01;;;;;;;1.50;1.40;;;;;;;15.54;100.00;99743.25;6180181;28;20601;-80
2024/03/30 09:21:20;;;;;;;1.87;1.73;;;;;;;15.66;100.00;99752.53;6179935;28;20241;-82
2024/03/30 09:24:43;;;;;;;1.50;1.33;;;;;;;15.64;100.00;99751.91;6186019;28;20230;-81
2024/03/30 09:28:04;;;;;;;8.03;1.80;;;;;;;15.74;100.00;99738.81;6164342;28;20214;-82
2024/03/30 09:31:24;;;;;;;1.77;1.60;;;;;;;15.61;100.00;99742.25;6183509;28;20229;-83
2024/03/30 09:34:45;;;;;;;3.20;2.00;;;;;;;15.48;100.00;99744.84;6182525;28;20230;-83
2024/03/30 09:38:06;;;;;;;5.00;1.50;;;;;;;15.66;100.00;99739.81;6176125;28;20266;-83
2024/03/30 09:41:32;;;;;;;2.00;1.90;;;;;;;15.85;100.00;99739.09;6186981;28;20526;-82
2024/03/30 09:44:54;;;;;;;3.23;2.17;;;;;;;15.89;100.00;99742.28;6182537;28;20545;-83
2024/03/30 09:48:16;;;;;;;2.67;1.70;;;;;;;16.91;100.00;99737.81;6181405;28;20257;-82
2024/03/30 09:51:37;;;;;;;2.40;1.77;;;;;;;16.94;100.00;99740.97;6176716;28;20497;-82
2024/03/30 09:55:00;;;;;;;1.97;1.87;;;;;;;16.79;100.00;99741.13;6179016;28;20238;-82
2024/03/30 09:58:24;;;;;;;3.50;2.33;;;;;;;16.55;100.00;99724.47;6180510;28;20229;-83
2024/03/30 10:01:44;;;;;;;3.03;2.30;;;;;;;16.58;100.00;99733.06;6178468;28;20300;-83
2024/03/30 10:05:07;;;;;;;2.90;2.60;;;;;;;17.44;100.00;99737.72;6177817;28;20234;-82
2024/03/30 10:08:32;;;;;;;2.45;2.17;;;;;;;16.89;100.00;99729.00;6180562;28;20225;-82
2024/03/30 10:11:59;;;;;;;2.23;2.03;;;;;;;17.36;100.00;99729.75;6180072;28;20241;-84
2024/03/30 10:15:33;;;;;;;3.80;3.27;;;;;;;18.14;100.00;99726.19;6179618;28;20233;-83
2024/03/30 10:18:55;;;;;;;3.20;2.35;;;;;;;18.84;100.00;99708.94;6181255;28;20320;-83
2024/03/30 10:22:16;;;;;;;2.15;1.92;;;;;;;18.33;100.00;99716.28;6179379;28;20234;-83
2024/03/30 10:25:37;;;;;;;2.10;1.98;;;;;;;17.91;100.00;99708.59;6180269;28;20229;-83
2024/03/30 10:28:57;;;;;;;2.20;2.00;;;;;;;18.59;100.00;99708.00;6181648;28;20226;-83
2024/03/30 10:32:20;;;;;;;2.85;1.95;;;;;;;18.16;100.00;99715.91;6173190;28;20226;-84
2024/03/30 10:35:41;;;;;;;2.15;1.92;;;;;;;18.01;100.00;99709.00;6176100;28;20560;-82
2024/03/30 10:39:03;;;;;;;3.00;1.73;;;;;;;18.62;100.00;99715.78;6186130;28;20238;-83
2024/03/30 10:42:24;;;;;;;5.07;2.70;;;;;;;19.61;100.00;99711.41;6180152;28;20225;-84
2024/03/30 10:45:46;;;;;;;2.20;2.00;;;;;;;18.92;100.00;99711.41;6175934;28;20233;-85
2024/03/30 10:49:11;;;;;;;1.85;1.70;;;;;;;18.95;100.00;99708.28;6182670;28;20238;-84
2024/03/30 10:52:32;;;;;;;2.15;1.83;;;;;;;19.32;100.00;99709.28;6176196;28;20229;-84
2024/03/30 10:55:54;;;;;;;2.80;2.13;;;;;;;18.73;100.00;99712.34;6181473;28;20238;-83
2024/03/30 10:59:17;;;;;;;1.95;1.50;;;;;;;19.12;100.00;99719.50;6181967;28;20611;-83
2024/03/30 11:02:39;;;;;;;3.30;1.92;;;;;;;19.26;100.00;99720.25;6177889;28;20787;-84
2024/03/30 11:06:01;;;;;;;3.92;2.58;;;;;;;18.91;100.00;99725.31;6176680;28;20231;-83
2024/03/30 11:09:23;;;;;;;2.25;1.70;;;;;;;19.72;100.00;99716.16;6185958;28;20336;-83
2024/03/30 11:12:59;;;;;;;3.97;2.50;;;;;;;19.57;100.00;99725.75;6179217;28;20231;-84
2024/03/30 11:16:19;;;;;;;4.45;3.33;;;;;;;20.25;100.00;99727.47;6179707;28;20229;-81
2024/03/30 11:19:47;;;;;;;5.07;2.10;;;;;;;19.65;100.00;99729.03;6176936;28;20234;-84
2024/03/30 11:23:20;;;;;;;4.22;2.45;;;;;;;19.54;100.00;99729.78;6187306;28;20233;-83
2024/03/30 11:26:50;;;;;;;3.58;2.60;;;;;;;20.56;100.00;99729.22;6182768;28;20217;-84
2024/03/30 11:30:28;;;;;;;8.82;2.13;;;;;;;20.17;100.00;99737.84;6180616;28;20234;-83
2024/03/30 11:33:57;;;;;;;3.20;1.92;;;;;;;20.82;100.00;99742.59;6183590;28;20230;-81
2024/03/30 11:37:25;;;;;;;3.90;2.13;;;;;;;19.74;100.00;99732.34;6184958;28;20225;-82
2024/03/30 11:40:57;;;;;;;5.43;2.50;;;;;;;19.55;100.00;99734.16;6182930;28;20242;-82
2024/03/30 11:44:23;;;;;;;4.35;2.22;;;;;;;19.90;100.00;99720.84;6187099;28;20234;-84
2024/03/30 11:47:44;;;;;;;5.50;2.42;;;;;;;19.34;100.00;99718.13;6164213;28;20225;-82
2024/03/30 11:51:18;;;;;;;6.93;2.80;;;;;;;18.58;100.00;99730.06;6155105;28;20236;-84
2024/03/30 11:54:39;;;;;;;4.70;2.88;;;;;;;18.71;100.00;99727.31;6189316;28;20265;-85
2024/03/30 11:58:02;;;;;;;6.63;3.65;;;;;;;18.41;100.00;99729.69;6195837;28;20678;-81
2024/03/30 12:01:23;;;;;;;4.82;2.40;;;;;;;18.60;100.00;99717.91;6186744;28;20599;-83
2024/03/30 12:04:44;;;;;;;9.73;2.70;;;;;;;19.01;100.00;99709.28;6184146;28;20226;-83
2024/03/30 12:08:05;;;;;;;9.50;4.40;;;;;;;19.41;100.00;99707.16;6184573;28;20533;-83
2024/03/30 12:11:25;;;;;;;5.88;2.67;;;;;;;19.15;100.00;99697.19;6175644;28;20237;-84
2024/03/30 12:14:50;;;;;;;7.88;2.97;;;;;;;19.19;100.00;99681.22;6174988;28;20250;-84
2024/03/30 12:18:10;;;;;;;5.43;2.15;;;;;;;18.93;100.00;99676.75;6182635;28;20230;-83
2024/03/30 12:21:31;;;;;;;5.05;2.35;;;;;;;19.05;100.00;99680.47;6187543;28;20229;-83
2024/03/30 12:24:53;;;;;;;7.22;2.55;;;;;;;18.83;100.00;99663.59;6178439;28;20312;-83
2024/03/30 12:28:13;;;;;;;5.00;3.10;;;;;;;18.88;100.00;99673.84;6176669;28;20490;-83
2024/03/30 12:31:35;;;;;;;9.35;3.60;;;;;;;19.07;100.00;99672.88;6186009;28;20541;-85
2024/03/30 12:34:58;;;;;;;8.90;2.92;;;;;;;18.78;100.00;99685.25;6182350;28;20362;-84
2024/03/30 12:38:19;;;;;;;11.82;3.25;;;;;;;18.76;100.00;99676.44;6183892;28;20222;-84
2024/03/30 12:41:39;;;;;;;6.95;3.08;;;;;;;18.78;100.00;99662.56;6166268;28;20238;-82
2024/03/30 12:45:01;;;;;;;10.07;3.20;;;;;;;18.78;100.00;99671.59;6183992;28;20256;-84
2024/03/30 12:48:24;;;;;;;12.73;3.50;;;;;;;18.89;100.00;99695.50;6163482;28;20612;-83
2024/03/30 12:51:48;;;;;;;11.32;3.63;;;;;;;18.98;100.00;99688.69;6177901;28;20488;-85
2024/03/30 12:55:09;;;;;;;7.18;2.88;;;;;;;19.78;100.00;99671.50;6183011;28;20245;-83
2024/03/30 12:58:30;;;;;;;20.70;5.45;;;;;;;19.45;100.00;99678.31;6185798;28;20226;-83
2024/03/30 13:01:52;;;;;;;11.60;3.70;;;;;;;19.31;100.00;99682.19;6177496;28;20246;-84
2024/03/30 13:05:14;;;;;;;14.00;4.72;;;;;;;19.00;100.00;99692.03;6179345;28;20253;-84
2024/03/30 13:08:40;;;;;;;8.00;3.50;;;;;;;18.83;100.00;99690.91;6191487;28;20319;-83
2024/03/30 13:12:02;;;;;;;5.90;3.70;;;;;;;18.86;100.00;99675.94;6175330;28;20311;-84
2024/03/30 13:15:24;;;;;;;9.77;5.30;;;;;;;19.01;100.00;99680.06;6176867;28;20426;-83
2024/03/30 13:18:44;;;;;;;12.98;3.88;;;;;;;18.88;100.00;99682.88;6179679;28;20238;-84
2024/03/30 13:22:11;;;;;;;5.47;3.28;;;;;;;19.24;100.00;99693.16;6176690;28;20616;-82
2024/03/30 13:25:33;;;;;;;9.02;3.13;;;;;;;19.67;100.00;99685.91;6177590;28;20313;-84
2024/03/30 13:28:54;;;;;;;11.75;4.15;;;;;;;20.58;100.00;99673.16;6177998;28;20615;-84
2024/03/30 13:32:14;;;;;;;9.38;3.97;;;;;;;20.92;100.00;99681.78;6170749;28;20494;-84
2024/03/30 13:35:35;;;;;;;14.93;5.78;;;;;;;20.42;100.00;99678.44;6171621;28;20265;-82
2024/03/30 13:38:57;;;;;;;11.95;6.60;;;;;;;20.13;100.00;99690.91;6185164;28;20233;-83
2024/03/30 13:42:17;;;;;;;14.43;6.47;;;;;;;19.66;100.00;99683.38;6175018;28;20222;-83
2024/03/30 13:45:39;;;;;;;13.88;5.70;;;;;;;19.51;100.00;99688.34;6174626;28;20593;-83
2024/03/30 13:49:03;;;;;;;9.63;6.15;;;;;;;19.52;100.00;99679.94;6181468;28;20238;-84
2024/03/30 13:52:24;;;;;;;10.82;5.40;;;;;;;19.18;100.00;99688.56;6168918;28;20226;-85
2024/03/30 13:55:46;;;;;;;10.98;6.32;;;;;;;19.07;100.00;99678.34;6174483;28;20309;-83
2024/03/30 13:59:07;;;;;;;15.20;6.93;;;;;;;19.03;100.00;99674.38;6183394;28;20223;-84
2024/03/30 14:02:28;;;;;;;22.27;7.75;;;;;;;18.99;100.00;99664.94;6173564;28;20633;-83
2024/03/30 14:05:49;;;;;;;14.32;6.75;;;;;;;18.92;100.00;99656.78;6177681;28;20324;-83
2024/03/30 14:09:10;;;;;;;12.20;8.15;;;;;;;18.87;100.00;99658.53;6181243;28;20238;-84
2024/03/30 14:12:32;;;;;;;14.90;9.10;;;;;;;18.94;100.00;99656.59;6178156;28;20234;-84
2024/03/30 14:15:54;;;;;;;20.25;9.57;;;;;;;18.95;100.00;99653.63;6177948;28;20226;-83
2024/03/30 14:19:15;;;;;;;19.20;10.68;;;;;;;19.12;100.00;99649.31;6160091;28;20863;-83
2024/03/30 14:22:35;;;;;;;15.02;9.15;;;;;;;19.27;100.00;99651.72;6189535;28;20229;-83
2024/03/30 14:25:55;;;;;;;15.38;8.80;;;;;;;19.24;100.00;99654.03;6175477;28;20249;-83
2024/03/30 14:29:18;;;;;;;15.80;8.75;;;;;;;19.38;100.00;99650.22;6182062;28;20234;-83
2024/03/30 14:32:37;;;;;;;16.05;9.68;;;;;;;19.57;100.00;99654.66;6172472;28;20222;-83
2024/03/30 14:35:58;;;;;;;13.20;8.23;;;;;;;19.56;100.00;99639.31;6181105;28;20325;-83
2024/03/30 14:39:18;;;;;;;14.57;7.68;;;;;;;19.42;100.00;99635.03;6180888;28;20222;-83
2024/03/30 14:42:39;;;;;;;13.95;8.15;;;;;;;19.67;100.00;99616.72;6179337;28;20222;-83
2024/03/30 14:46:01;;;;;;;10.43;5.50;;;;;;;19.77;100.00;99598.72;6179565;28;20253;-83
2024/03/30 14:49:22;;;;;;;11.52;5.10;;;;;;;19.84;100.00;99588.53;6192255;28;20261;-83
2024/03/30 14:52:42;;;;;;;8.13;4.13;;;;;;;19.77;100.00;99582.31;6181198;28;20245;-83
2024/03/30 14:56:06;;;;;;;10.40;3.92;;;;;;;19.81;100.00;99571.75;6186799;28;20313;-84
2024/03/30 14:59:27;;;;;;;13.65;4.80;;;;;;;19.86;100.00;99563.66;6186660;28;20252;-83
2024/03/30 15:02:49;;;;;;;12.73;5.43;;;;;;;19.72;100.00;99559.41;6173388;28;22029;-82
2024/03/30 15:06:16;;;;;;;13.88;4.88;;;;;;;19.56;100.00;99560.03;6178819;28;20323;-82
2024/03/30 15:09:36;;;;;;;12.07;4.68;;;;;;;19.34;100.00;99559.59;6186370;28;20233;-81
2024/03/30 15:12:57;;;;;;;10.60;5.82;;;;;;;19.10;100.00;99574.94;6182252;28;20230;-81
2024/03/30 15:16:18;;;;;;;11.57;4.68;;;;;;;18.99;100.00;99588.47;6178783;28;20257;-82
2024/03/30 15:19:40;;;;;;;11.68;5.22;;;;;;;18.81;100.00;99605.63;6183916;28;20275;-83
2024/03/30 15:23:01;;;;;;;12.32;4.55;;;;;;;18.80;100.00;99606.66;6181382;28;20309;-82
2024/03/30 15:26:21;;;;;;;9.02;4.68;;;;;;;18.75;100.00;99603.78;6179521;28;20289;-83
2024/03/30 15:32:09;;;;;;;9.18;6.13;;;;;;;18.66;100.00;99620.63;6181167;28;20611;-82
2024/03/30 15:33:25;;;;;;;14.38;5.45;;;;;;;18.56;100.00;99626.56;6182259;28;20316;-81
2024/03/30 15:36:47;;;;;;;11.35;6.03;;;;;;;18.50;100.00;99624.72;6181450;28;20280;-83
2024/03/30 15:40:12;;;;;;;17.20;6.45;;;;;;;18.47;100.00;99641.50;6179383;28;21736;-83
2024/03/30 15:43:33;;;;;;;14.88;5.57;;;;;;;18.42;100.00;99637.72;6189033;28;20237;-83
2024/03/30 15:46:54;;;;;;;10.13;5.50;;;;;;;18.40;100.00;99648.03;6151960;28;20230;-81